Latest Weather Observations for Essendon Airport

IDV60901

Issued at 8:25 pm EDT Saturday 25 October 2014 (issued every 10 minutes, with the page automatically refreshed every 10 minutes)

About weather observations | Map of Melbourne area stations | Latest observations for Melbourne area | Other Formats
Station Details ID: 086038 Name: ESSENDON AIRPORT Lat: -37.73 Lon: 144.91 Height: 78.4 m
Data from the previous 72 hours. | See also: Recent months at Essendon Airport
Date/Time
EDT
Tmp

°C
App
Tmp
°C
Dew
Point
°C
Rel
Hum
%
Delta-T

°C
Wind Press
QNH
hPa
Press
MSL
hPa
Rain
since
9 am
mm
Dir
 
Spd
km/h
Gust
km/h
Spd
kts
Gust
kts
25/08:00pm 14.1 9.7 10.5 79 1.9 S 24 32 13 17 1015.7 1015.6 0.0
25/07:30pm 14.5 10.5 10.3 76 2.2 SSW 22 30 12 16 1015.6 1015.5 0.0
25/07:00pm 15.2 10.8 10.4 73 2.5 S 24 32 13 17 1015.3 1015.2 0.0
25/06:30pm 15.6 11.3 10.8 73 2.6 S 24 30 13 16 1015.2 1015.1 0.0
25/06:00pm 16.5 12.3 11.0 70 3.0 S 24 33 13 18 1014.8 1014.8 0.0
25/05:30pm 17.0 12.9 11.3 69 3.1 S 24 32 13 17 1014.7 1014.7 0.0
25/05:00pm 17.6 13.9 11.4 67 3.4 S 22 30 12 16 1014.6 1014.6 0.0
25/04:30pm 18.1 14.3 11.2 64 3.8 S 22 26 12 14 1014.5 1014.5 0.0
25/04:00pm 18.7 15.3 11.3 62 4.1 S 20 26 11 14 1014.4 1014.4 0.0
25/03:30pm 19.2 16.1 11.5 61 4.2 S 19 26 10 14 1014.4 1014.4 0.0
25/03:00pm 19.5 17.0 11.0 58 4.6 S 15 20 8 11 1014.7 1014.7 0.0
25/02:30pm 19.1 17.8 11.4 61 4.2 SSE 9 17 5 9 1015.3 1015.2 0.0
25/02:00pm 18.7 17.0 11.3 62 4.0 S 11 17 6 9 1015.7 1015.6 0.0
25/01:30pm 17.7 15.9 11.0 65 3.6 S 11 17 6 9 1016.0 1015.9 0.0
25/01:00pm 17.1 15.7 10.9 67 3.3 SW 9 15 5 8 1016.2 1016.1 0.0
25/12:30pm 17.0 15.3 11.3 69 3.1 S 11 17 6 9 1016.5 1016.4 0.0
25/12:00pm 15.9 13.4 10.9 72 2.7 SSW 15 19 8 10 1017.1 1017.0 0.0
25/11:30am 15.6 13.8 11.0 74 2.5 S 11 17 6 9 1017.3 1017.2 0.0
25/11:00am 15.6 13.1 11.2 75 2.4 S 15 19 8 10 1017.7 1017.7 0.0
25/10:30am 15.7 12.8 10.9 73 2.6 S 17 22 9 12 1017.7 1017.7 0.0
25/10:00am 15.6 13.5 11.0 74 2.5 S 13 20 7 11 1017.5 1017.5 0.0
25/09:30am 15.3 13.2 11.1 76 2.2 SSE 13 20 7 11 1017.4 1017.4 0.0
25/09:00am 15.2 13.1 11.0 76 2.2 SSE 13 17 7 9 1017.5 1017.5 0.0
25/08:30am 14.8 12.7 11.0 78 2.0 S 13 15 7 8 1017.6 1017.6 0.0
25/08:17am 14.8 13.5 11.2 79 1.9 S 9 13 5 7 1017.5 1017.5 0.0
25/08:00am 14.6 13.3 11.2 80 1.8 S 9 13 5 7 1017.5 1017.5 0.0
25/07:30am 14.7 13.2 10.5 76 2.2 SSW 9 13 5 7 1017.4 1017.4 0.0
25/07:00am 14.4 12.8 10.2 76 2.2 SSW 9 13 5 7 1017.0 1016.9 0.0
25/06:30am 14.1 12.5 10.3 78 2.0 SW 9 11 5 6 1017.0 1016.9 0.0
25/06:10am 14.0 12.8 10.4 79 1.9 SW 7 9 4 5 1016.9 1016.8 0.0
25/06:00am 14.0 12.8 10.4 79 1.9 SSW 7 9 4 5 1016.8 1016.7 0.0
25/05:30am 13.9 12.2 11.1 83 1.5 SSW 11 15 6 8 1016.7 1016.6 0.0
25/05:00am 13.8 12.2 11.5 86 1.2 SSW 11 17 6 9 1016.5 1016.4 0.0
25/04:30am 13.7 11.7 11.6 87 1.1 SSW 13 17 7 9 1016.3 1016.2 0.0
25/04:00am 13.6 12.1 12.0 90 0.9 SSW 11 15 6 8 1016.3 1016.2 0.0
25/03:30am 13.3 10.8 12.2 93 0.6 SSW 17 20 9 11 1016.4 1016.3 0.0
25/03:17am 13.4 11.3 12.5 94 0.5 SSW 15 20 8 11 1016.3 1016.2 0.0
25/03:00am 13.5 11.8 12.6 94 0.5 SSW 13 19 7 10 1016.4 1016.3 0.0
25/02:40am 13.8 11.9 12.9 94 0.5 SSW 15 19 8 10 1016.5 1016.4 0.0
25/02:30am 13.9 11.6 13.0 94 0.5 SSW 17 20 9 11 1016.4 1016.3 0.0
25/02:26am 13.9 12.0 13.0 94 0.5 S 15 20 8 11 1016.4 1016.3 0.0
25/02:00am 13.7 11.4 12.9 95 0.4 SSW 17 20 9 11 1016.5 1016.4 0.0
25/01:43am 14.1 11.1 12.5 90 0.9 SSW 20 26 11 14 1016.5 1016.4 0.0
25/01:30am 14.9 12.4 12.2 84 1.5 S 17 24 9 13 1016.6 1016.5 0.0
25/01:00am 15.4 13.8 12.7 84 1.5 S 13 17 7 9 1016.5 1016.4 0.0
25/12:30am 15.5 14.4 13.0 85 1.4 SE 11 17 6 9 1016.4 1016.3 0.0
25/12:00am 15.5 14.0 13.2 86 1.3 S 13 15 7 8 1016.5 1016.4 0.0
 
Date/Time
EDT
Tmp

°C
App
Tmp
°C
Dew
Point
°C
Rel
Hum
%
Delta-T

°C
Wind Press
QNH
hPa
Press
MSL
hPa
Rain
since
9 am
mm
Dir
 
Spd
km/h
Gust
km/h
Spd
kts
Gust
kts
24/11:30pm 15.3 13.4 13.1 87 1.2 S 15 19 8 10 1016.5 1016.4 0.0
24/11:00pm 15.2 12.9 13.1 87 1.2 S 17 22 9 12 1016.4 1016.3 0.0
24/10:30pm 15.1 12.8 13.0 87 1.2 S 17 22 9 12 1016.2 1016.1 0.0
24/10:00pm 15.3 12.5 13.1 87 1.2 S 20 26 11 14 1015.9 1015.8 0.0
24/09:30pm 15.3 12.5 13.1 87 1.2 S 20 28 11 15 1015.4 1015.3 0.0
24/09:00pm 15.6 13.1 14.0 90 0.9 S 20 28 11 15 1014.4 1014.4 0.0
24/08:51pm 15.6 12.3 14.1 91 0.9 S 24 32 13 17 1014.3 1014.3 0.0
24/08:30pm 15.6 12.0 14.3 92 0.7 S 26 33 14 18 1013.8 1013.8 0.0
24/08:27pm 15.6 11.6 14.1 91 0.9 S 28 33 15 18 1013.7 1013.7 0.0
24/08:21pm 15.9 12.0 14.4 91 0.9 S 28 35 15 19 1013.6 1013.6 0.0
24/08:00pm 17.3 14.8 14.2 82 1.8 S 20 26 11 14 1012.6 1012.6 0.0
24/07:30pm 18.7 15.5 14.2 75 2.6 S 24 30 13 16 1012.0 1012.0 0.0
24/07:00pm 21.3 17.9 14.7 66 3.9 S 26 33 14 18 1011.3 1011.3 0.0
24/06:30pm 24.9 21.3 13.1 48 6.9 S 24 32 13 17 1010.5 1010.5 0.0
24/06:00pm 28.8 24.7 11.4 34 10.0 SW 24 30 13 16 1009.8 1009.8 0.0
24/05:30pm 30.7 25.2 5.9 21 13.2 WNW 24 32 13 17 1009.7 1009.7 0.0
24/05:00pm 31.1 26.2 6.9 22 13.1 W 22 33 12 18 1009.5 1009.5 0.0
24/04:30pm 31.0 25.5 7.5 23 12.9 WNW 26 30 14 16 1009.5 1009.5 0.0
24/04:00pm 29.4 28.2 12.8 36 9.8 SSE 11 17 6 9 1009.9 1009.9 0.0
24/03:30pm 28.9 26.5 13.9 39 9.0 S 19 24 10 13 1010.0 1010.0 0.0
24/03:00pm 29.1 26.5 14.9 42 8.7 S 22 26 12 14 1009.9 1009.9 0.0
24/02:30pm 30.2 29.8 15.1 40 9.3 SE 11 19 6 10 1010.0 1010.0 0.0
24/02:00pm 28.2 25.1 15.5 46 7.8 S 26 32 14 17 1010.4 1010.4 0.0
24/01:30pm 29.1 28.5 14.5 41 8.9 SW 11 19 6 10 1010.4 1010.4 0.0
24/01:00pm 27.7 26.7 14.7 45 7.9 SW 13 19 7 10 1010.6 1010.6 0.0
24/12:30pm 27.7 26.2 14.3 43 8.1 S 15 22 8 12 1010.9 1010.9 0.0
24/12:00pm 27.6 26.3 14.9 45 7.7 S 15 20 8 11 1011.1 1011.1 0.0
24/11:30am 27.7 26.1 14.0 43 8.2 N 15 22 8 12 1011.3 1011.3 0.0
24/11:00am 26.9 24.0 14.0 45 7.7 N 22 30 12 16 1011.2 1011.2 0.0
24/10:30am 24.8 25.5 15.7 57 5.5 NE 6 11 3 6 1011.4 1011.4 0.0
24/10:00am 20.5 20.7 14.2 67 3.7 NNE 6 7 3 4 1011.8 1011.8 0.0
24/09:30am 18.4 18.1 14.3 77 2.4 E 9 13 5 7 1011.6 1011.6 0.0
24/09:10am 17.1 16.3 14.0 82 1.8 E 11 15 6 8 1011.7 1011.7 0.0
24/09:00am 16.8 16.5 14.3 85 1.4 ENE 9 13 5 7 1011.9 1011.9 0.0
24/08:54am 16.9 17.2 14.9 88 1.2 NE 7 11 4 6 1012.1 1012.1 0.0
24/08:30am 15.0 14.9 14.0 94 0.6 NNE 7 11 4 6 1012.3 1012.3 0.0
24/08:00am 14.7 14.6 13.9 95 0.5 N 7 9 4 5 1012.4 1012.4 0.0
24/07:30am 14.5 14.5 13.5 94 0.6 NNW 6 9 3 5 1012.5 1012.5 0.0
24/07:06am 14.4 14.7 13.4 94 0.6 NNW 4 7 2 4 1012.4 1012.4 0.0
24/07:00am 14.5 15.6 13.5 94 0.6 CALM 0 0 0 0 1012.4 1012.4 0.0
24/06:30am 14.6 14.4 13.5 93 0.6 NNE 7 13 4 7 1012.2 1012.2 0.0
24/06:00am 14.7 14.5 13.6 93 0.6 N 7 13 4 7 1012.2 1012.2 0.0
24/05:30am 14.7 14.1 13.6 93 0.6 NW 9 11 5 6 1012.4 1012.4 0.0
24/05:00am 14.8 14.6 13.5 92 0.7 WNW 7 15 4 8 1012.5 1012.5 0.0
24/04:30am 14.8 14.6 13.5 92 0.7 NW 7 11 4 6 1012.5 1012.5 0.0
24/04:00am 14.9 15.7 13.6 92 0.7 W 2 9 1 5 1012.6 1012.6 0.0
24/03:30am 14.9 14.9 13.6 92 0.7 NW 6 9 3 5 1012.7 1012.7 0.0
24/03:00am 14.9 14.8 13.4 91 0.8 NW 6 9 3 5 1013.0 1013.0 0.0
24/02:30am 14.9 14.6 13.4 91 0.8 WNW 7 11 4 6 1013.3 1013.3 0.0
24/02:00am 14.9 14.3 13.4 91 0.8 WNW 9 15 5 8 1013.7 1013.7 0.0
24/01:30am 14.9 13.9 13.4 91 0.8 WNW 11 15 6 8 1014.0 1014.0 0.0
24/01:00am 14.7 13.3 13.4 92 0.7 WNW 13 17 7 9 1014.5 1014.5 0.0
24/12:30am 14.7 13.3 13.4 92 0.7 NW 13 19 7 10 1014.5 1014.5 0.0
24/12:22am 14.6 13.2 13.3 92 0.7 WNW 13 17 7 9 1014.6 1014.6 0.0
24/12:00am 14.7 12.9 13.4 92 0.7 WNW 15 20 8 11 1015.0 1015.0 0.0
 
Date/Time
EDT
Tmp

°C
App
Tmp
°C
Dew
Point
°C
Rel
Hum
%
Delta-T

°C
Wind Press
QNH
hPa
Press
MSL
hPa
Rain
since
9 am
mm
Dir
 
Spd
km/h
Gust
km/h
Spd
kts
Gust
kts
23/11:30pm 14.3 12.8 13.0 92 0.7 WNW 13 19 7 10 1015.2 1015.1 0.0
23/11:00pm 14.3 12.4 12.9 91 0.8 WNW 15 17 8 9 1015.3 1015.2 0.0
23/10:30pm 15.0 13.2 13.4 90 0.9 WNW 15 17 8 9 1015.4 1015.3 0.0
23/10:00pm 15.4 13.9 13.2 87 1.2 WNW 13 17 7 9 1015.4 1015.3 0.0
23/09:30pm 16.3 15.4 13.8 85 1.4 W 11 13 6 7 1015.2 1015.1 0.0
23/09:00pm 16.7 16.6 13.8 83 1.6 SW 7 9 4 5 1015.2 1015.1 0.0
23/08:30pm 17.3 16.9 14.0 81 1.9 SSW 9 13 5 7 1014.9 1014.9 0.0
23/08:00pm 18.0 16.8 14.1 78 2.2 SSW 13 15 7 8 1014.7 1014.7 0.0
23/07:30pm 18.9 17.8 14.4 75 2.6 SSW 13 19 7 10 1014.8 1014.8 0.0
23/07:00pm 19.8 17.7 14.6 72 3.0 SSW 19 24 10 13 1014.8 1014.8 0.0
23/06:30pm 20.5 18.8 14.8 70 3.4 SW 17 24 9 13 1014.8 1014.8 0.0
23/06:00pm 20.1 18.1 14.9 72 3.1 SW 19 24 10 13 1015.2 1015.1 0.0
23/05:30pm 19.5 16.7 14.3 72 3.0 SW 22 28 12 15 1015.4 1015.3 0.0
23/05:00pm 19.3 16.4 13.9 71 3.1 SW 22 32 12 17 1015.8 1015.7 0.0
23/04:30pm 19.8 17.3 14.0 69 3.4 SSW 20 26 11 14 1016.0 1015.9 0.0
23/04:00pm 19.6 17.6 13.8 69 3.3 SSW 17 24 9 13 1016.3 1016.2 0.0
23/03:30pm 19.5 17.4 13.7 69 3.3 SSW 17 22 9 12 1016.7 1016.6 0.0
23/03:00pm 18.3 16.8 13.2 72 2.9 SSW 13 19 7 10 1017.1 1017.0 0.0
23/02:51pm 18.0 16.6 13.3 74 2.7 SSW 13 20 7 11 1017.3 1017.2 0.0
23/02:30pm 17.7 15.9 13.2 75 2.5 S 15 20 8 11 1017.7 1017.7 0.0
23/02:00pm 17.5 15.3 13.2 76 2.4 S 17 24 9 13 1018.1 1018.1 0.0
23/01:30pm 17.0 15.1 12.9 77 2.3 S 15 20 8 11 1018.4 1018.4 0.0
23/01:00pm 16.4 14.1 13.1 81 1.8 S 17 20 9 11 1018.9 1018.9 0.0
23/12:30pm 16.2 13.9 13.1 82 1.7 S 17 20 9 11 1019.1 1019.1 0.0
23/12:00pm 15.3 13.3 12.8 85 1.4 S 15 20 8 11 1019.5 1019.5 0.0
23/11:30am 14.9 13.2 12.6 86 1.3 S 13 17 7 9 1019.7 1019.7 0.0
23/11:00am 15.1 13.5 12.8 86 1.3 S 13 19 7 10 1020.1 1020.1 0.0
23/10:30am 14.9 13.2 12.6 86 1.3 S 13 17 7 9 1020.3 1020.3 0.0
23/10:00am 14.9 12.5 12.6 86 1.3 S 17 20 9 11 1020.2 1020.2 0.0
23/09:30am 14.8 13.1 12.5 86 1.3 S 13 17 7 9 1020.4 1020.4 0.0
23/09:00am 14.7 12.6 12.4 86 1.3 SSW 15 19 8 10 1020.5 1020.5 0.0
23/08:30am 14.5 12.9 12.9 90 0.9 S 13 19 7 10 1020.4 1020.4 0.0
23/08:00am 14.8 12.9 13.0 89 1.0 S 15 20 8 11 1020.2 1020.2 0.0
23/07:30am 14.4 12.5 13.1 92 0.7 S 15 19 8 10 1020.0 1020.0 0.0
23/07:00am 14.4 12.5 13.0 91 0.8 S 15 20 8 11 1019.8 1019.8 0.0
23/06:30am 14.5 12.2 13.0 91 0.8 S 17 20 9 11 1019.5 1019.5 0.0
23/06:00am 14.8 12.8 12.8 88 1.1 SSW 15 17 8 9 1019.3 1019.3 0.0
23/05:30am 14.7 13.1 12.9 89 1.0 SSW 13 17 7 9 1018.9 1018.9 0.0
23/05:00am 14.7 12.3 12.7 88 1.1 SW 17 20 9 11 1018.6 1018.6 0.0
23/04:30am 14.7 12.7 12.7 88 1.1 SW 15 19 8 10 1018.6 1018.6 0.0
23/04:00am 14.6 12.3 13.0 90 0.9 SSW 17 24 9 13 1018.5 1018.5 0.0
23/03:30am 14.6 11.9 13.0 90 0.9 SW 19 22 10 12 1018.7 1018.7 0.0
23/03:00am 14.6 12.3 13.1 91 0.8 SW 17 20 9 11 1019.0 1019.0 0.0
23/02:30am 14.8 12.6 13.2 90 0.9 SSW 17 22 9 12 1019.2 1019.2 0.0
23/02:05am 15.1 12.9 13.3 89 1.0 SSW 17 24 9 13 1019.1 1019.1 0.0
23/02:00am 15.0 12.4 13.2 89 1.0 SSW 19 24 10 13 1019.3 1019.3 0.0
23/01:47am 15.2 14.3 13.6 90 0.9 S 11 13 6 7 1019.4 1019.4 0.0
23/01:46am 15.2 14.3 13.6 90 0.9 SSW 11 13 6 7 1019.4 1019.4 0.0
23/01:30am 14.5 14.0 12.7 89 1.0 WSW 7 9 4 5 1019.3 1019.3 0.0
23/01:26am 14.5 14.0 12.7 89 1.0 WSW 7 11 4 6 1019.3 1019.3 0.0
23/01:00am 15.1 13.3 13.3 89 1.0 S 15 20 8 11 1019.2 1019.2 0.0
23/12:37am 15.1 13.3 13.3 89 1.0 S 15 20 8 11 1019.1 1019.1 0.0
23/12:30am 15.1 13.3 13.3 89 1.0 S 15 20 8 11 1018.9 1018.9 0.0
23/12:00am 15.3 12.7 13.3 88 1.1 S 19 26 10 14 1019.0 1019.0 0.0
 
Date/Time
EDT
Tmp

°C
App
Tmp
°C
Dew
Point
°C
Rel
Hum
%
Delta-T

°C
Wind Press
QNH
hPa
Press
MSL
hPa
Rain
since
9 am
mm
Dir
 
Spd
km/h
Gust
km/h
Spd
kts
Gust
kts
22/11:30pm 15.4 13.6 13.2 87 1.2 S 15 20 8 11 1018.6 1018.6 0.0
22/11:00pm 16.0 13.2 13.3 84 1.5 S 20 24 11 13 1018.5 1018.5 0.0
22/10:30pm 17.9 14.9 12.6 71 3.0 SSW 20 24 11 13 1018.4 1018.4 0.0
22/10:00pm 19.9 17.0 12.9 64 4.0 SW 20 26 11 14 1018.5 1018.5 0.0
22/09:30pm 21.5 19.4 12.4 56 5.2 SSW 15 20 8 11 1018.0 1018.0 0.0
22/09:00pm 22.6 17.6 12.3 52 5.9 SW 30 37 16 20 1017.3 1017.2 0.0
22/08:30pm 24.2 20.6 13.1 50 6.4 WSW 24 30 13 16 1016.1 1016.0 0.0

Latest Capital City Observations: Canberra | Sydney | Melbourne | Brisbane | Adelaide | Perth | Hobart | Darwin

Other Formats:

Comma delimited format used in spreadsheet applications
http://www.bom.gov.au/fwo/IDV60901/IDV60901.95866.axf

JavaScript Object Notation format (JSON) in row-major order
http://www.bom.gov.au/fwo/IDV60901/IDV60901.95866.json